sensor_id;sensor_type;location;lat;lon;timestamp;temperature;humidity
32147;DHT22;32190;49.112;8.598;2023-03-01T00:01:21;5.60;45.30
32147;DHT22;32190;49.112;8.598;2023-03-01T00:07:12;5.60;45.30
32147;DHT22;32190;49.112;8.598;2023-03-01T00:13:02;5.60;45.30
32147;DHT22;32190;49.112;8.598;2023-03-01T00:18:56;5.60;45.30
32147;DHT22;32190;49.112;8.598;2023-03-01T00:24:47;5.60;45.40
32147;DHT22;32190;49.112;8.598;2023-03-01T00:30:38;5.50;45.30
32147;DHT22;32190;49.112;8.598;2023-03-01T00:36:34;5.50;45.30
32147;DHT22;32190;49.112;8.598;2023-03-01T00:42:24;5.40;45.40
32147;DHT22;32190;49.112;8.598;2023-03-01T00:48:15;5.40;45.40
32147;DHT22;32190;49.112;8.598;2023-03-01T00:54:05;5.30;45.40
32147;DHT22;32190;49.112;8.598;2023-03-01T00:59:56;5.30;45.50
32147;DHT22;32190;49.112;8.598;2023-03-01T01:05:47;5.30;45.60
32147;DHT22;32190;49.112;8.598;2023-03-01T01:11:37;5.20;45.60
32147;DHT22;32190;49.112;8.598;2023-03-01T01:17:28;5.20;45.60
32147;DHT22;32190;49.112;8.598;2023-03-01T01:29:40;5.10;45.70
32147;DHT22;32190;49.112;8.598;2023-03-01T01:35:45;5.10;45.80
32147;DHT22;32190;49.112;8.598;2023-03-01T01:41:58;5.10;45.80
32147;DHT22;32190;49.112;8.598;2023-03-01T01:47:49;5.10;45.80
32147;DHT22;32190;49.112;8.598;2023-03-01T01:53:44;5.00;45.80
32147;DHT22;32190;49.112;8.598;2023-03-01T01:59:37;4.90;45.80
32147;DHT22;32190;49.112;8.598;2023-03-01T02:11:44;4.90;46.00
32147;DHT22;32190;49.112;8.598;2023-03-01T02:17:35;4.90;45.90
32147;DHT22;32190;49.112;8.598;2023-03-01T02:23:27;4.80;45.90
32147;DHT22;32190;49.112;8.598;2023-03-01T02:29:18;4.80;46.00
32147;DHT22;32190;49.112;8.598;2023-03-01T02:35:12;4.80;45.90
32147;DHT22;32190;49.112;8.598;2023-03-01T02:41:05;4.80;46.00
32147;DHT22;32190;49.112;8.598;2023-03-01T02:47:01;4.80;46.00
32147;DHT22;32190;49.112;8.598;2023-03-01T02:53:06;4.70;46.00
32147;DHT22;32190;49.112;8.598;2023-03-01T02:58:59;4.70;46.20
32147;DHT22;32190;49.112;8.598;2023-03-01T03:04:50;4.70;46.10
32147;DHT22;32190;49.112;8.598;2023-03-01T03:10:41;4.60;46.10
32147;DHT22;32190;49.112;8.598;2023-03-01T03:16:33;4.60;46.80
32147;DHT22;32190;49.112;8.598;2023-03-01T03:22:23;4.60;46.10
32147;DHT22;32190;49.112;8.598;2023-03-01T03:28:14;4.60;46.20
32147;DHT22;32190;49.112;8.598;2023-03-01T03:34:06;4.50;46.20
32147;DHT22;32190;49.112;8.598;2023-03-01T03:39:56;4.50;46.20
32147;DHT22;32190;49.112;8.598;2023-03-01T03:45:49;4.40;46.30
32147;DHT22;32190;49.112;8.598;2023-03-01T03:51:40;4.40;47.00
32147;DHT22;32190;49.112;8.598;2023-03-01T03:57:30;4.40;46.50
32147;DHT22;32190;49.112;8.598;2023-03-01T04:03:21;4.40;46.50
32147;DHT22;32190;49.112;8.598;2023-03-01T04:09:12;4.40;46.50
32147;DHT22;32190;49.112;8.598;2023-03-01T04:15:04;4.40;46.40
32147;DHT22;32190;49.112;8.598;2023-03-01T04:21:03;4.30;46.40
32147;DHT22;32190;49.112;8.598;2023-03-01T04:26:53;4.30;46.40
32147;DHT22;32190;49.112;8.598;2023-03-01T04:32:44;4.30;46.40
32147;DHT22;32190;49.112;8.598;2023-03-01T04:38:36;4.30;46.50
32147;DHT22;32190;49.112;8.598;2023-03-01T04:44:27;4.20;46.50
32147;DHT22;32190;49.112;8.598;2023-03-01T04:50:18;4.20;46.50
32147;DHT22;32190;49.112;8.598;2023-03-01T04:56:14;4.20;46.60
32147;DHT22;32190;49.112;8.598;2023-03-01T05:02:04;4.20;46.60
32147;DHT22;32190;49.112;8.598;2023-03-01T05:07:57;4.10;46.60
32147;DHT22;32190;49.112;8.598;2023-03-01T05:13:48;4.10;46.70
32147;DHT22;32190;49.112;8.598;2023-03-01T05:19:40;4.00;46.70
32147;DHT22;32190;49.112;8.598;2023-03-01T05:25:33;4.00;46.70
32147;DHT22;32190;49.112;8.598;2023-03-01T05:31:24;4.00;46.80
32147;DHT22;32190;49.112;8.598;2023-03-01T05:37:25;3.90;46.80
32147;DHT22;32190;49.112;8.598;2023-03-01T05:43:24;3.90;46.90
32147;DHT22;32190;49.112;8.598;2023-03-01T05:49:25;3.90;46.90
32147;DHT22;32190;49.112;8.598;2023-03-01T05:55:22;3.90;47.00
32147;DHT22;32190;49.112;8.598;2023-03-01T06:01:26;3.90;47.00
32147;DHT22;32190;49.112;8.598;2023-03-01T06:07:19;3.80;47.20
32147;DHT22;32190;49.112;8.598;2023-03-01T06:13:09;3.90;47.10
32147;DHT22;32190;49.112;8.598;2023-03-01T06:19:00;3.80;47.10
32147;DHT22;32190;49.112;8.598;2023-03-01T06:24:50;3.80;47.20
32147;DHT22;32190;49.112;8.598;2023-03-01T06:30:41;3.80;47.20
32147;DHT22;32190;49.112;8.598;2023-03-01T06:36:31;3.80;47.30
32147;DHT22;32190;49.112;8.598;2023-03-01T06:42:22;3.70;47.20
32147;DHT22;32190;49.112;8.598;2023-03-01T06:48:13;3.80;47.40
32147;DHT22;32190;49.112;8.598;2023-03-01T06:54:06;3.80;47.40
32147;DHT22;32190;49.112;8.598;2023-03-01T06:59:56;3.80;47.40
32147;DHT22;32190;49.112;8.598;2023-03-01T07:05:50;3.80;47.40
32147;DHT22;32190;49.112;8.598;2023-03-01T07:11:42;3.80;47.70
32147;DHT22;32190;49.112;8.598;2023-03-01T07:17:34;3.80;47.60
32147;DHT22;32190;49.112;8.598;2023-03-01T07:23:24;3.80;47.70
32147;DHT22;32190;49.112;8.598;2023-03-01T07:29:15;3.80;47.80
32147;DHT22;32190;49.112;8.598;2023-03-01T07:35:06;3.80;47.80
32147;DHT22;32190;49.112;8.598;2023-03-01T07:41:12;3.80;47.90
32147;DHT22;32190;49.112;8.598;2023-03-01T07:47:06;3.80;48.10
32147;DHT22;32190;49.112;8.598;2023-03-01T07:53:02;3.90;48.00
32147;DHT22;32190;49.112;8.598;2023-03-01T07:59:02;3.90;48.00
32147;DHT22;32190;49.112;8.598;2023-03-01T08:04:53;3.90;48.30
32147;DHT22;32190;49.112;8.598;2023-03-01T08:10:46;3.90;48.40
32147;DHT22;32190;49.112;8.598;2023-03-01T08:16:36;3.90;48.50
32147;DHT22;32190;49.112;8.598;2023-03-01T08:22:29;3.90;48.40
32147;DHT22;32190;49.112;8.598;2023-03-01T08:28:22;4.00;48.40
32147;DHT22;32190;49.112;8.598;2023-03-01T08:34:16;4.10;48.50
32147;DHT22;32190;49.112;8.598;2023-03-01T08:40:10;4.10;48.60
32147;DHT22;32190;49.112;8.598;2023-03-01T08:46:00;4.10;48.60
32147;DHT22;32190;49.112;8.598;2023-03-01T08:51:51;4.20;48.70
32147;DHT22;32190;49.112;8.598;2023-03-01T08:57:44;4.30;48.70
32147;DHT22;32190;49.112;8.598;2023-03-01T09:03:35;4.30;48.70
32147;DHT22;32190;49.112;8.598;2023-03-01T09:09:28;4.40;48.80
32147;DHT22;32190;49.112;8.598;2023-03-01T09:15:19;4.50;48.90
32147;DHT22;32190;49.112;8.598;2023-03-01T09:21:13;4.60;48.80
32147;DHT22;32190;49.112;8.598;2023-03-01T09:27:03;4.70;48.80
32147;DHT22;32190;49.112;8.598;2023-03-01T09:32:58;4.80;48.70
32147;DHT22;32190;49.112;8.598;2023-03-01T09:38:50;4.90;48.60
32147;DHT22;32190;49.112;8.598;2023-03-01T09:45:00;5.00;48.50
32147;DHT22;32190;49.112;8.598;2023-03-01T09:50:52;5.10;48.60
32147;DHT22;32190;49.112;8.598;2023-03-01T10:03:16;5.40;48.60
32147;DHT22;32190;49.112;8.598;2023-03-01T10:09:16;5.50;48.50
32147;DHT22;32190;49.112;8.598;2023-03-01T10:21:25;5.70;48.30
32147;DHT22;32190;49.112;8.598;2023-03-01T10:28:05;5.80;48.20
32147;DHT22;32190;49.112;8.598;2023-03-01T10:33:37;6.00;48.10
32147;DHT22;32190;49.112;8.598;2023-03-01T10:39:30;6.10;47.90
32147;DHT22;32190;49.112;8.598;2023-03-01T10:51:21;6.30;47.80
32147;DHT22;32190;49.112;8.598;2023-03-01T10:57:37;6.40;47.60
32147;DHT22;32190;49.112;8.598;2023-03-01T11:03:35;6.60;47.50
32147;DHT22;32190;49.112;8.598;2023-03-01T11:09:25;6.70;47.30
32147;DHT22;32190;49.112;8.598;2023-03-01T11:15:28;6.80;47.30
32147;DHT22;32190;49.112;8.598;2023-03-01T11:21:19;7.00;47.00
32147;DHT22;32190;49.112;8.598;2023-03-01T11:33:33;7.30;46.90
32147;DHT22;32190;49.112;8.598;2023-03-01T11:39:37;7.40;46.60
32147;DHT22;32190;49.112;8.598;2023-03-01T11:45:39;7.50;46.30
32147;DHT22;32190;49.112;8.598;2023-03-01T12:10:23;7.90;45.40
32147;DHT22;32190;49.112;8.598;2023-03-01T12:22:32;8.10;45.60
32147;DHT22;32190;49.112;8.598;2023-03-01T12:35:06;8.30;45.60
32147;DHT22;32190;49.112;8.598;2023-03-01T12:53:15;8.70;44.80
32147;DHT22;32190;49.112;8.598;2023-03-01T13:05:40;8.90;44.70
32147;DHT22;32190;49.112;8.598;2023-03-01T13:11:35;9.00;44.60
32147;DHT22;32190;49.112;8.598;2023-03-01T13:17:40;9.10;44.80
32147;DHT22;32190;49.112;8.598;2023-03-01T13:23:36;9.20;44.60
32147;DHT22;32190;49.112;8.598;2023-03-01T13:35:44;9.50;43.50
32147;DHT22;32190;49.112;8.598;2023-03-01T13:47:38;9.70;43.70
32147;DHT22;32190;49.112;8.598;2023-03-01T13:53:40;9.70;43.30
32147;DHT22;32190;49.112;8.598;2023-03-01T13:59:35;9.80;43.80
32147;DHT22;32190;49.112;8.598;2023-03-01T14:05:38;9.90;43.80
32147;DHT22;32190;49.112;8.598;2023-03-01T14:23:54;10.10;43.60
32147;DHT22;32190;49.112;8.598;2023-03-01T14:29:58;10.20;43.60
32147;DHT22;32190;49.112;8.598;2023-03-01T14:36:03;10.20;41.60
32147;DHT22;32190;49.112;8.598;2023-03-01T14:41:54;10.30;42.20
32147;DHT22;32190;49.112;8.598;2023-03-01T14:47:45;10.40;42.60
32147;DHT22;32190;49.112;8.598;2023-03-01T14:53:36;10.40;42.50
32147;DHT22;32190;49.112;8.598;2023-03-01T14:59:28;10.50;42.70
32147;DHT22;32190;49.112;8.598;2023-03-01T15:05:39;10.60;42.50
32147;DHT22;32190;49.112;8.598;2023-03-01T15:11:32;10.60;42.00
32147;DHT22;32190;49.112;8.598;2023-03-01T15:17:31;10.60;42.30
32147;DHT22;32190;49.112;8.598;2023-03-01T15:23:53;10.70;41.70
32147;DHT22;32190;49.112;8.598;2023-03-01T15:30:31;10.70;41.50
32147;DHT22;32190;49.112;8.598;2023-03-01T15:36:46;10.70;41.60
32147;DHT22;32190;49.112;8.598;2023-03-01T15:42:51;10.80;41.80
32147;DHT22;32190;49.112;8.598;2023-03-01T15:48:57;10.90;42.00
32147;DHT22;32190;49.112;8.598;2023-03-01T15:55:04;10.90;41.90
32147;DHT22;32190;49.112;8.598;2023-03-01T16:08:24;11.00;41.30
32147;DHT22;32190;49.112;8.598;2023-03-01T16:27:54;10.90;41.30
32147;DHT22;32190;49.112;8.598;2023-03-01T16:34:00;10.80;41.90
32147;DHT22;32190;49.112;8.598;2023-03-01T16:40:16;10.80;41.90
32147;DHT22;32190;49.112;8.598;2023-03-01T16:46:36;10.80;41.50
32147;DHT22;32190;49.112;8.598;2023-03-01T16:53:03;10.70;41.30
32147;DHT22;32190;49.112;8.598;2023-03-01T16:59:15;10.70;41.40
32147;DHT22;32190;49.112;8.598;2023-03-01T17:05:50;10.60;42.00
32147;DHT22;32190;49.112;8.598;2023-03-01T17:12:23;10.60;42.30
32147;DHT22;32190;49.112;8.598;2023-03-01T17:25:19;10.50;42.60
32147;DHT22;32190;49.112;8.598;2023-03-01T17:31:48;10.50;42.70
32147;DHT22;32190;49.112;8.598;2023-03-01T17:37:51;10.50;42.70
32147;DHT22;32190;49.112;8.598;2023-03-01T17:44:27;10.40;42.80
32147;DHT22;32190;49.112;8.598;2023-03-01T18:03:57;10.20;43.00
32147;DHT22;32190;49.112;8.598;2023-03-01T18:16:33;10.10;43.10
32147;DHT22;32190;49.112;8.598;2023-03-01T18:29:04;10.00;43.20
32147;DHT22;32190;49.112;8.598;2023-03-01T18:35:09;9.90;43.20
32147;DHT22;32190;49.112;8.598;2023-03-01T18:41:05;9.80;43.20
32147;DHT22;32190;49.112;8.598;2023-03-01T18:46:58;9.70;43.40
32147;DHT22;32190;49.112;8.598;2023-03-01T18:53:13;9.70;43.50
32147;DHT22;32190;49.112;8.598;2023-03-01T18:59:29;9.60;43.60
32147;DHT22;32190;49.112;8.598;2023-03-01T19:05:27;9.50;43.50
32147;DHT22;32190;49.112;8.598;2023-03-01T19:11:20;9.40;43.60
32147;DHT22;32190;49.112;8.598;2023-03-01T19:17:16;9.40;43.80
32147;DHT22;32190;49.112;8.598;2023-03-01T19:23:29;9.30;44.40
32147;DHT22;32190;49.112;8.598;2023-03-01T19:29:29;9.30;43.90
32147;DHT22;32190;49.112;8.598;2023-03-01T19:35:45;9.30;43.80
32147;DHT22;32190;49.112;8.598;2023-03-01T19:42:08;9.10;43.90
32147;DHT22;32190;49.112;8.598;2023-03-01T19:48:08;9.10;44.10
32147;DHT22;32190;49.112;8.598;2023-03-01T19:54:05;9.00;44.20
32147;DHT22;32190;49.112;8.598;2023-03-01T19:59:59;9.10;44.30
32147;DHT22;32190;49.112;8.598;2023-03-01T20:05:55;9.00;44.20
32147;DHT22;32190;49.112;8.598;2023-03-01T20:11:59;9.00;44.30
32147;DHT22;32190;49.112;8.598;2023-03-01T20:18:08;9.00;44.30
32147;DHT22;32190;49.112;8.598;2023-03-01T20:24:12;8.90;44.30
32147;DHT22;32190;49.112;8.598;2023-03-01T20:30:07;8.90;44.30
32147;DHT22;32190;49.112;8.598;2023-03-01T20:36:07;8.80;44.30
32147;DHT22;32190;49.112;8.598;2023-03-01T20:42:09;8.80;44.30
32147;DHT22;32190;49.112;8.598;2023-03-01T20:48:09;8.80;44.40
32147;DHT22;32190;49.112;8.598;2023-03-01T20:54:08;8.70;44.40
32147;DHT22;32190;49.112;8.598;2023-03-01T21:00:00;8.70;44.50
32147;DHT22;32190;49.112;8.598;2023-03-01T21:06:02;8.70;44.60
32147;DHT22;32190;49.112;8.598;2023-03-01T21:11:56;8.60;44.50
32147;DHT22;32190;49.112;8.598;2023-03-01T21:17:47;8.50;44.60
32147;DHT22;32190;49.112;8.598;2023-03-01T21:23:42;8.50;44.60
32147;DHT22;32190;49.112;8.598;2023-03-01T21:29:46;8.50;44.70
32147;DHT22;32190;49.112;8.598;2023-03-01T21:35:39;8.40;44.70
32147;DHT22;32190;49.112;8.598;2023-03-01T21:41:59;8.40;44.80
32147;DHT22;32190;49.112;8.598;2023-03-01T21:47:52;8.40;44.80
32147;DHT22;32190;49.112;8.598;2023-03-01T21:53:52;8.30;44.80
32147;DHT22;32190;49.112;8.598;2023-03-01T21:59:46;8.30;44.90
32147;DHT22;32190;49.112;8.598;2023-03-01T22:05:52;8.20;44.90
32147;DHT22;32190;49.112;8.598;2023-03-01T22:11:49;8.20;45.00
32147;DHT22;32190;49.112;8.598;2023-03-01T22:17:42;8.10;45.00
32147;DHT22;32190;49.112;8.598;2023-03-01T22:23:36;8.10;45.00
32147;DHT22;32190;49.112;8.598;2023-03-01T22:29:36;8.00;45.10
32147;DHT22;32190;49.112;8.598;2023-03-01T22:35:32;8.00;45.10
32147;DHT22;32190;49.112;8.598;2023-03-01T22:41:22;7.90;45.20
32147;DHT22;32190;49.112;8.598;2023-03-01T22:47:19;7.90;45.20
32147;DHT22;32190;49.112;8.598;2023-03-01T22:53:10;7.80;45.20
32147;DHT22;32190;49.112;8.598;2023-03-01T22:59:13;7.80;45.30
32147;DHT22;32190;49.112;8.598;2023-03-01T23:05:22;7.70;45.40
32147;DHT22;32190;49.112;8.598;2023-03-01T23:11:16;7.60;45.40
32147;DHT22;32190;49.112;8.598;2023-03-01T23:17:09;7.60;45.50
32147;DHT22;32190;49.112;8.598;2023-03-01T23:23:04;7.50;45.50
32147;DHT22;32190;49.112;8.598;2023-03-01T23:29:00;7.60;45.60
32147;DHT22;32190;49.112;8.598;2023-03-01T23:34:57;7.50;45.70
32147;DHT22;32190;49.112;8.598;2023-03-01T23:40:47;7.50;45.70
32147;DHT22;32190;49.112;8.598;2023-03-01T23:46:38;7.50;45.70
32147;DHT22;32190;49.112;8.598;2023-03-01T23:52:38;7.40;45.70
32147;DHT22;32190;49.112;8.598;2023-03-01T23:58:32;7.40;45.80
